createdAt,value
2017-04-27T00:00:17.141Z,23.19
2017-04-27T00:01:16.785Z,23.18
2017-04-27T00:02:17.100Z,23.18
2017-04-27T00:03:17.108Z,23.08
2017-04-27T00:04:17.111Z,23.08
2017-04-27T00:05:17.117Z,23.18
2017-04-27T00:06:17.124Z,23.38
2017-04-27T00:07:17.135Z,23.28
2017-04-27T00:08:17.182Z,23.28
2017-04-27T00:09:16.826Z,23.28
2017-04-27T00:10:17.146Z,22.89
2017-04-27T00:11:17.148Z,22.99
2017-04-27T00:12:17.156Z,23.29
2017-04-27T00:13:17.212Z,23.38
2017-04-27T00:14:16.905Z,23.38
2017-04-27T00:15:16.861Z,23.29
2017-04-27T00:16:17.181Z,23.29
2017-04-27T00:17:17.184Z,22.81
2017-04-27T00:18:16.880Z,23
2017-04-27T00:19:17.197Z,23.29
2017-04-27T00:20:17.207Z,23.18
2017-04-27T00:21:17.257Z,23.18
2017-04-27T00:22:17.212Z,23.28
2017-04-27T00:23:17.218Z,23.38
2017-04-27T00:24:17.222Z,23.38
2017-04-27T00:25:17.281Z,23.18
2017-04-27T00:26:17.234Z,22.99
2017-04-27T00:27:17.239Z,22.99
2017-04-27T00:28:16.933Z,23.28
2017-04-27T00:29:16.939Z,23.18
2017-04-27T00:30:17.255Z,23.18
2017-04-27T00:31:17.263Z,22.8
2017-04-27T00:32:16.956Z,23.18
2017-04-27T00:33:17.162Z,22.99
2017-04-27T00:34:16.968Z,23.28
2017-04-27T00:35:17.333Z,23.18
2017-04-27T00:36:17.289Z,23.28
2017-04-27T00:37:17.297Z,23.38
2017-04-27T00:38:17.302Z,23.47
2017-04-27T00:39:17.308Z,22.99
2017-04-27T00:40:17.312Z,23.28
2017-04-27T00:41:17.316Z,22.89
2017-04-27T00:42:17.372Z,23.47
2017-04-27T00:43:17.380Z,22.89
2017-04-27T00:44:17.333Z,22.99
2017-04-27T00:45:17.340Z,23.18
2017-04-27T00:46:17.034Z,23.08
2017-04-27T00:47:17.351Z,23.18
2017-04-27T00:48:17.355Z,23.08
2017-04-27T00:49:17.411Z,22.8
2017-04-27T00:50:17.421Z,23.28
2017-04-27T00:51:17.373Z,22.99
2017-04-27T00:52:17.377Z,23.28
2017-04-27T00:53:17.383Z,23.08
2017-04-27T00:54:17.387Z,23.08
2017-04-27T00:55:17.396Z,23.18
2017-04-27T00:56:17.398Z,23.47
2017-04-27T00:57:17.455Z,23.28
2017-04-27T00:58:17.414Z,23.28
2017-04-27T00:59:17.466Z,23.08
2017-04-27T01:00:17.521Z,23.28
2017-04-27T01:01:17.425Z,23.08
2017-04-27T01:02:17.123Z,23.18
2017-04-27T01:03:17.485Z,23.18
2017-04-27T01:04:17.445Z,23.28
2017-04-27T01:05:17.447Z,23.08
2017-04-27T01:06:17.453Z,23.18
2017-04-27T01:07:17.462Z,23.38
2017-04-27T01:08:17.512Z,23.28
2017-04-27T01:09:17.473Z,23.38
2017-04-27T01:10:17.477Z,22.89
2017-04-27T01:11:17.481Z,22.99
2017-04-27T01:12:17.535Z,22.89
2017-04-27T01:13:17.543Z,23.38
2017-04-27T01:14:17.496Z,22.89
2017-04-27T01:15:17.500Z,22.99
2017-04-27T01:16:17.198Z,23.08
2017-04-27T01:17:17.565Z,23.08
2017-04-27T01:18:17.519Z,22.99
2017-04-27T01:19:17.525Z,22.99
2017-04-27T01:20:17.529Z,23.08
2017-04-27T01:21:17.586Z,22.89
2017-04-27T01:22:17.540Z,23.08
2017-04-27T01:23:17.545Z,22.89
2017-04-27T01:24:17.552Z,22.99
2017-04-27T01:25:17.605Z,22.99
2017-04-27T01:26:17.302Z,22.99
2017-04-27T01:27:17.615Z,22.99
2017-04-27T01:28:17.568Z,22.99
2017-04-27T01:29:17.577Z,23.08
2017-04-27T01:30:17.269Z,22.99
2017-04-27T01:31:17.591Z,23.08
2017-04-27T01:32:17.591Z,22.99
2017-04-27T01:33:17.653Z,22.89
2017-04-27T01:34:17.608Z,22.89
2017-04-27T01:35:17.615Z,23.08
2017-04-27T01:36:17.617Z,23.18
2017-04-27T01:37:17.625Z,22.6
2017-04-27T01:38:17.314Z,22.7
2017-04-27T01:39:17.633Z,22.8
2017-04-27T01:40:17.634Z,22.99
2017-04-27T01:41:17.641Z,22.7
2017-04-27T01:42:17.336Z,22.89
2017-04-27T01:43:17.655Z,23.08
2017-04-27T01:44:17.661Z,22.6
2017-04-27T01:45:17.665Z,22.89
2017-04-27T01:46:17.668Z,22.7
2017-04-27T01:47:17.726Z,22.6
2017-04-27T01:48:17.682Z,22.7
2017-04-27T01:49:17.689Z,22.8
2017-04-27T01:50:17.382Z,22.89
2017-04-27T01:51:17.697Z,22.89
2017-04-27T01:52:17.750Z,22.6
2017-04-27T01:53:17.403Z,22.89
2017-04-27T01:54:17.715Z,22.89
2017-04-27T01:55:17.719Z,22.89
2017-04-27T01:56:17.731Z,22.6
2017-04-27T01:57:17.420Z,22.89
2017-04-27T01:58:17.734Z,22.8
2017-04-27T01:59:17.741Z,22.89
2017-04-27T02:00:17.746Z,22.89
2017-04-27T02:01:17.754Z,22.89
2017-04-27T02:02:17.809Z,22.8
2017-04-27T02:03:17.798Z,22.6
2017-04-27T02:04:17.817Z,22.89
2017-04-27T02:05:17.511Z,22.89
2017-04-27T02:06:17.779Z,22.89
2017-04-27T02:07:17.784Z,22.89
2017-04-27T02:08:17.837Z,22.99
2017-04-27T02:09:17.799Z,22.89
2017-04-27T02:10:17.537Z,22.6
2017-04-27T02:11:17.854Z,22.6
2017-04-27T02:12:17.806Z,22.6
2017-04-27T02:13:17.819Z,22.89
2017-04-27T02:14:17.821Z,22.5
2017-04-27T02:15:17.824Z,22.6
2017-04-27T02:16:17.830Z,22.22
2017-04-27T02:17:17.836Z,22.12
2017-04-27T02:18:17.532Z,22.12
2017-04-27T02:19:17.849Z,22.12
2017-04-27T02:20:17.853Z,22.41
2017-04-27T02:21:17.858Z,22.02
2017-04-27T02:22:17.863Z,22.22
2017-04-27T02:23:17.559Z,22.22
2017-04-27T02:24:17.876Z,22.31
2017-04-27T02:25:17.879Z,22.31
2017-04-27T02:26:17.886Z,22.22
2017-04-27T02:27:17.891Z,22.31
2017-04-27T02:28:17.643Z,22.31
2017-04-27T02:29:17.900Z,22.31
2017-04-27T02:30:17.955Z,22.22
2017-04-27T02:31:17.912Z,22.22
2017-04-27T02:32:17.915Z,22.41
2017-04-27T02:33:17.925Z,22.41
2017-04-27T02:34:17.931Z,22.12
2017-04-27T02:35:17.982Z,22.41
2017-04-27T02:36:17.938Z,22.22
2017-04-27T02:37:17.941Z,22.12
2017-04-27T02:38:17.950Z,22.41
2017-04-27T02:39:18.054Z,22.31
2017-04-27T02:40:18.011Z,22.31
2017-04-27T02:41:18.016Z,22.41
2017-04-27T02:42:17.659Z,22.31
2017-04-27T02:43:17.979Z,22.22
2017-04-27T02:44:17.980Z,22.22
2017-04-27T02:45:17.986Z,22.31
2017-04-27T02:46:17.993Z,22.31
2017-04-27T02:47:17.997Z,22.31
2017-04-27T02:48:18.051Z,22.31
2017-04-27T02:49:18.010Z,22.41
2017-04-27T02:50:18.013Z,22.31
2017-04-27T02:51:18.020Z,22.22
2017-04-27T02:52:18.022Z,22.22
2017-04-27T02:53:17.723Z,22.22
2017-04-27T02:54:18.033Z,22.31
2017-04-27T02:55:18.038Z,22.22
2017-04-27T02:56:18.044Z,22.22
2017-04-27T02:57:18.053Z,22.22
2017-04-27T02:58:18.111Z,22.22
2017-04-27T02:59:18.111Z,22.41
2017-04-27T03:00:18.067Z,22.31
2017-04-27T03:01:17.811Z,22.41
2017-04-27T03:02:17.817Z,22.41
2017-04-27T03:03:18.080Z,22.22
2017-04-27T03:04:18.088Z,22.31
2017-04-27T03:05:18.094Z,22.22
2017-04-27T03:06:18.147Z,22.31
2017-04-27T03:07:18.105Z,22.41
2017-04-27T03:08:18.113Z,22.22
2017-04-27T03:09:18.113Z,22.31
2017-04-27T03:10:18.119Z,22.22
2017-04-27T03:11:18.124Z,22.22
2017-04-27T03:12:18.132Z,22.41
2017-04-27T03:13:17.880Z,22.22
2017-04-27T03:14:18.141Z,22.31
2017-04-27T03:15:18.147Z,22.31
2017-04-27T03:16:17.840Z,22.31
2017-04-27T03:17:18.157Z,22.31
2017-04-27T03:18:18.163Z,22.31
2017-04-27T03:19:18.173Z,22.41
2017-04-27T03:20:18.222Z,22.22
2017-04-27T03:21:18.179Z,22.12
2017-04-27T03:22:18.237Z,22.31
2017-04-27T03:23:18.194Z,22.41
2017-04-27T03:24:18.198Z,22.31
2017-04-27T03:25:18.203Z,22.22
2017-04-27T03:26:18.205Z,22.41
2017-04-27T03:27:18.262Z,22.31
2017-04-27T03:28:18.220Z,22.31
2017-04-27T03:29:18.222Z,22.31
2017-04-27T03:30:18.229Z,22.6
2017-04-27T03:31:18.237Z,22.02
2017-04-27T03:32:18.240Z,21.92
2017-04-27T03:33:18.298Z,22.41
2017-04-27T03:34:18.251Z,21.92
2017-04-27T03:35:17.994Z,21.92
2017-04-27T03:36:18.264Z,22.22
2017-04-27T03:37:18.269Z,22.31
2017-04-27T03:38:18.012Z,22.31
2017-04-27T03:39:18.329Z,22.22
2017-04-27T03:40:18.286Z,22.41
2017-04-27T03:41:17.978Z,22.22
2017-04-27T03:42:18.296Z,22.31
2017-04-27T03:43:18.300Z,22.41
2017-04-27T03:44:18.354Z,22.12
2017-04-27T03:45:18.000Z,22.41
2017-04-27T03:46:18.368Z,22.5
2017-04-27T03:47:18.372Z,22.6
2017-04-27T03:48:18.327Z,22.31
2017-04-27T03:49:18.024Z,22.41
2017-04-27T03:50:18.081Z,22.12
2017-04-27T03:51:18.397Z,22.41
2017-04-27T03:52:18.350Z,22.41
2017-04-27T03:53:18.351Z,22.31
2017-04-27T03:54:18.358Z,22.31
2017-04-27T03:55:18.101Z,22.41
2017-04-27T03:56:18.421Z,22.41
2017-04-27T03:57:18.064Z,22.31
2017-04-27T03:58:18.380Z,22.31
2017-04-27T03:59:18.384Z,22.31
2017-04-27T04:00:18.391Z,22.31
2017-04-27T04:01:18.396Z,22.5
2017-04-27T04:02:18.450Z,22.31
2017-04-27T04:03:18.410Z,22.22
2017-04-27T04:04:18.425Z,22.31
2017-04-27T04:05:18.466Z,22.6
2017-04-27T04:06:18.424Z,22.31
2017-04-27T04:07:18.480Z,22.31
2017-04-27T04:08:18.435Z,22.22
2017-04-27T04:09:18.494Z,22.31
2017-04-27T04:10:18.451Z,22.22
2017-04-27T04:11:18.453Z,22.31
2017-04-27T04:12:18.458Z,22.31
2017-04-27T04:13:18.460Z,22.31
2017-04-27T04:14:18.517Z,22.31
2017-04-27T04:15:18.472Z,22.31
2017-04-27T04:16:18.478Z,22.31
2017-04-27T04:17:18.484Z,22.12
2017-04-27T04:18:18.490Z,22.22
2017-04-27T04:19:18.542Z,22.31
2017-04-27T04:20:18.502Z,22.31
2017-04-27T04:21:18.505Z,22.12
2017-04-27T04:22:18.509Z,22.02
2017-04-27T04:23:18.566Z,22.12
2017-04-27T04:24:18.520Z,22.22
2017-04-27T04:25:18.526Z,22.31
2017-04-27T04:26:18.589Z,21.92
2017-04-27T04:27:18.536Z,21.92
2017-04-27T04:28:18.543Z,21.92
2017-04-27T04:29:18.551Z,21.92
2017-04-27T04:30:18.551Z,22.02
2017-04-27T04:31:18.557Z,22.02
2017-04-27T04:32:18.254Z,22.02
2017-04-27T04:33:18.567Z,21.92
2017-04-27T04:34:18.575Z,21.92
2017-04-27T04:35:18.615Z,21.92
2017-04-27T04:36:18.635Z,21.92
2017-04-27T04:37:18.594Z,21.92
2017-04-27T04:38:18.598Z,21.92
2017-04-27T04:39:18.608Z,22.12
2017-04-27T04:40:18.631Z,21.92
2017-04-27T04:41:18.301Z,22.02
2017-04-27T04:42:18.668Z,21.92
2017-04-27T04:43:18.672Z,22.31
2017-04-27T04:44:18.628Z,22.22
2017-04-27T04:45:18.638Z,22.02
2017-04-27T04:46:18.638Z,22.02
2017-04-27T04:47:18.336Z,22.31
2017-04-27T04:48:18.649Z,22.22
2017-04-27T04:49:18.345Z,22.12
2017-04-27T04:50:18.349Z,22.12
2017-04-27T04:51:18.408Z,22.13
2017-04-27T04:52:18.673Z,22.13
2017-04-27T04:53:18.415Z,22.22
2017-04-27T04:54:18.685Z,22.02
2017-04-27T04:55:18.694Z,22.22
2017-04-27T04:56:18.694Z,22.12
2017-04-27T04:57:18.756Z,22.22
2017-04-27T04:58:18.445Z,22.13
2017-04-27T04:59:18.711Z,22.12
2017-04-27T05:00:18.717Z,22.02
2017-04-27T05:01:18.722Z,22.12
2017-04-27T05:02:18.731Z,22.02
2017-04-27T05:03:18.733Z,22.12
2017-04-27T05:04:18.793Z,22.12
2017-04-27T05:05:18.796Z,21.92
2017-04-27T05:06:18.751Z,21.75
2017-04-27T05:07:18.759Z,21.94
2017-04-27T05:08:18.451Z,21.84
2017-04-27T05:09:18.769Z,21.65
2017-04-27T05:10:18.825Z,21.75
2017-04-27T05:11:18.829Z,21.65
2017-04-27T05:12:18.477Z,21.56
2017-04-27T05:13:18.797Z,21.47
2017-04-27T05:14:18.849Z,21.55
2017-04-27T05:15:18.855Z,21.17
2017-04-27T05:16:18.813Z,20.89
2017-04-27T05:17:18.869Z,20.98
2017-04-27T05:18:18.824Z,20.98
2017-04-27T05:19:18.829Z,20.89
2017-04-27T05:20:18.885Z,20.79
2017-04-27T05:21:18.844Z,20.79
2017-04-27T05:22:18.898Z,20.8
2017-04-27T05:23:18.856Z,20.51
2017-04-27T05:24:18.861Z,20.51
2017-04-27T05:25:18.872Z,20.7
2017-04-27T05:26:18.927Z,20.7
2017-04-27T05:27:18.575Z,20.8
2017-04-27T05:28:18.938Z,20.61
2017-04-27T05:29:18.949Z,21.09
2017-04-27T05:30:18.902Z,20.99
2017-04-27T05:31:18.962Z,20.98
2017-04-27T05:32:18.605Z,20.79
2017-04-27T05:33:18.612Z,20.61
2017-04-27T05:34:18.930Z,20.7
2017-04-27T05:35:18.985Z,20.7
2017-04-27T05:36:18.632Z,20.7
2017-04-27T05:37:18.952Z,20.51
2017-04-27T05:38:18.699Z,20.7
2017-04-27T05:39:18.966Z,20.61
2017-04-27T05:40:18.659Z,20.51
2017-04-27T05:41:19.011Z,20.51
2017-04-27T05:42:19.037Z,20.51
2017-04-27T05:43:18.989Z,20.61
2017-04-27T05:44:19.000Z,20.61
2017-04-27T05:45:19.053Z,20.51
2017-04-27T05:46:19.062Z,20.62
2017-04-27T05:47:19.067Z,20.32
2017-04-27T05:48:19.023Z,20.23
2017-04-27T05:49:18.773Z,20.71
2017-04-27T05:50:19.091Z,20.7
2017-04-27T05:51:19.047Z,20.99
2017-04-27T05:52:19.052Z,20.51
2017-04-27T05:53:19.110Z,20.8
2017-04-27T05:54:19.070Z,20.52
2017-04-27T05:55:19.074Z,20.62
2017-04-27T05:56:19.080Z,20.81
2017-04-27T05:57:19.135Z,20.7
2017-04-27T05:58:19.141Z,20.61
2017-04-27T05:59:18.789Z,20.41
2017-04-27T06:00:19.107Z,20.51
2017-04-27T06:01:19.115Z,20.8
2017-04-27T06:02:19.224Z,20.7
2017-04-27T06:03:19.182Z,20.23
2017-04-27T06:04:19.183Z,20.23
2017-04-27T06:05:19.143Z,20.62
2017-04-27T06:06:19.173Z,20.13
2017-04-27T06:07:19.205Z,20.62
2017-04-27T06:08:19.162Z,20.81
2017-04-27T06:09:19.172Z,20.52
2017-04-27T06:10:19.224Z,20.42
2017-04-27T06:11:18.876Z,19.95
2017-04-27T06:12:18.878Z,19.27
2017-04-27T06:13:19.300Z,19.38
2017-04-27T06:14:19.203Z,19.67
2017-04-27T06:15:19.210Z,19.57
2017-04-27T06:16:18.908Z,18.51
2017-04-27T06:17:19.226Z,17.76
2017-04-27T06:18:18.922Z,16.99
2017-04-27T06:19:19.239Z,16.22
2017-04-27T06:20:18.946Z,15.84
2017-04-27T06:21:19.254Z,15.37
2017-04-27T06:22:18.952Z,14.7
2017-04-27T06:23:19.269Z,14.42
2017-04-27T06:24:19.280Z,14.13
2017-04-27T06:25:19.286Z,13.64
2017-04-27T06:26:19.293Z,13.75
2017-04-27T06:27:19.350Z,13.26
2017-04-27T06:28:19.312Z,13.36
2017-04-27T06:29:19.373Z,13.76
2017-04-27T06:30:19.376Z,13.46
2017-04-27T06:31:19.332Z,13.48
2017-04-27T06:32:19.345Z,12.79
2017-04-27T06:33:19.352Z,12.3
2017-04-27T06:34:19.413Z,12.4
2017-04-27T06:35:19.108Z,12.3
2017-04-27T06:36:19.430Z,12.6
2017-04-27T06:37:19.437Z,12.4
2017-04-27T06:38:19.447Z,12.41
2017-04-27T06:39:19.458Z,12.41
2017-04-27T06:40:19.414Z,12.61
2017-04-27T06:41:19.442Z,12.31
2017-04-27T06:42:19.432Z,12.32
2017-04-27T06:43:19.490Z,12.32
2017-04-27T06:44:19.497Z,11.73
2017-04-27T06:45:19.456Z,11.63
2017-04-27T06:46:19.470Z,12.02
2017-04-27T06:47:19.528Z,11.73
2017-04-27T06:48:19.488Z,11.44
2017-04-27T06:49:19.545Z,12.12
2017-04-27T06:50:19.507Z,11.24
2017-04-27T06:51:19.512Z,11.93
2017-04-27T06:52:19.524Z,11.63
2017-04-27T06:53:19.581Z,11.54
2017-04-27T06:54:19.542Z,11.54
2017-04-27T06:55:19.551Z,11.54
2017-04-27T06:56:19.560Z,11.44
2017-04-27T06:57:19.571Z,11.73
2017-04-27T06:58:19.635Z,11.74
2017-04-27T06:59:19.587Z,11.25
2017-04-27T07:00:19.600Z,11.83
2017-04-27T07:01:19.657Z,11.54
2017-04-27T07:02:19.619Z,11.64
2017-04-27T07:03:19.315Z,11.35
2017-04-27T07:04:19.688Z,11.16
2017-04-27T07:05:19.696Z,11.25
2017-04-27T07:06:19.654Z,11.16
2017-04-27T07:07:19.666Z,11.25
2017-04-27T07:08:19.676Z,11.06
2017-04-27T07:09:19.986Z,11.16
2017-04-27T07:10:19.694Z,11.06
2017-04-27T07:11:19.704Z,11.35
2017-04-27T07:12:19.714Z,13.2
2017-04-27T07:13:19.738Z,15.41
2017-04-27T07:14:19.423Z,17.98
2017-04-27T07:15:19.481Z,19.02
2017-04-27T07:16:19.749Z,19.78
2017-04-27T07:17:19.759Z,19.96
2017-04-27T07:18:19.768Z,20.43
2017-04-27T07:19:20.077Z,20.72
2017-04-27T07:20:19.782Z,20.62
2017-04-27T07:21:19.844Z,21.1
2017-04-27T07:22:19.487Z,20.9
2017-04-27T07:23:19.808Z,21.3
2017-04-27T07:24:19.504Z,21.28
2017-04-27T07:25:19.920Z,21.67
2017-04-27T07:26:19.831Z,21.67
2017-04-27T07:27:19.839Z,21.57
2017-04-27T07:28:19.847Z,21.86
2017-04-27T07:29:19.900Z,22.33
2017-04-27T07:30:19.858Z,22.14
2017-04-27T07:31:19.867Z,22.14
2017-04-27T07:32:19.875Z,21.85
2017-04-27T07:33:19.572Z,22.61
2017-04-27T07:34:19.889Z,22.24
2017-04-27T07:35:19.582Z,22.63
2017-04-27T07:36:19.901Z,22.82
2017-04-27T07:37:19.907Z,23.01
2017-04-27T07:38:19.605Z,23.1
2017-04-27T07:39:19.924Z,23.29
2017-04-27T07:40:19.929Z,23.19
2017-04-27T07:41:19.933Z,23.29
2017-04-27T07:42:19.941Z,23.49
2017-04-27T07:43:19.668Z,23.29
2017-04-27T07:44:20.005Z,23.39
2017-04-27T07:45:20.016Z,23.29
2017-04-27T07:46:20.026Z,23.19
2017-04-27T07:47:20.026Z,23.1
2017-04-27T07:48:20.034Z,23.19
2017-04-27T07:49:19.680Z,23.19
2017-04-27T07:50:20.001Z,22.91
2017-04-27T07:51:20.003Z,22.71
2017-04-27T07:52:20.061Z,22.61
2017-04-27T07:53:20.017Z,22.24
2017-04-27T07:54:20.021Z,22.14
2017-04-27T07:55:20.027Z,22.06
2017-04-27T07:56:19.727Z,21.48
2017-04-27T07:57:20.042Z,21.39
2017-04-27T07:58:19.790Z,21
2017-04-27T07:59:20.057Z,20.81
2017-04-27T08:00:19.756Z,21.3
2017-04-27T08:01:20.066Z,20.62
2017-04-27T08:02:20.073Z,20.72
2017-04-27T08:03:20.083Z,20.53
2017-04-27T08:04:20.087Z,20.53
2017-04-27T08:05:20.142Z,20.34
2017-04-27T08:06:20.100Z,20.43
2017-04-27T08:07:20.156Z,20.34
2017-04-27T08:08:20.113Z,20.24
2017-04-27T08:09:19.851Z,20.34
2017-04-27T08:10:19.873Z,20.04
2017-04-27T08:11:19.826Z,20.25
2017-04-27T08:12:20.141Z,20.15
2017-04-27T08:13:20.146Z,19.96
2017-04-27T08:14:20.156Z,20.06
2017-04-27T08:15:20.207Z,20.06
2017-04-27T08:16:19.855Z,19.96
2017-04-27T08:17:20.171Z,20.06
2017-04-27T08:18:20.185Z,19.76
2017-04-27T08:19:20.184Z,20.06
2017-04-27T08:20:20.248Z,20.25
2017-04-27T08:21:20.197Z,20.34
2017-04-27T08:22:20.204Z,20.34
2017-04-27T08:23:20.213Z,20.24
2017-04-27T08:24:20.266Z,20.44
2017-04-27T08:25:20.223Z,20.43
2017-04-27T08:26:20.285Z,20.25
2017-04-27T08:27:20.233Z,20.15
2017-04-27T08:28:20.245Z,20.25
2017-04-27T08:29:19.936Z,20.62
2017-04-27T08:30:20.253Z,18.98
2017-04-27T08:31:20.260Z,19.74
2017-04-27T08:32:19.955Z,19.26
2017-04-27T08:33:20.322Z,20.21
2017-04-27T08:34:20.328Z,20.39
2017-04-27T08:35:20.306Z,20.28
2017-04-27T08:36:20.335Z,20.67
2017-04-27T08:37:20.290Z,20.28
2017-04-27T08:38:20.292Z,20.96
2017-04-27T08:39:20.296Z,20.95
2017-04-27T08:40:20.301Z,20.48
2017-04-27T08:41:20.303Z,21.04
2017-04-27T08:42:20.306Z,21.24
2017-04-27T08:43:20.313Z,20.47
2017-04-27T08:44:20.315Z,19.6
2017-04-27T08:45:20.369Z,20.28
2017-04-27T08:46:20.372Z,20.56
2017-04-27T08:47:20.324Z,20.56
2017-04-27T08:48:20.335Z,19.89
2017-04-27T08:49:20.338Z,19.42
2017-04-27T08:50:20.025Z,19.7
2017-04-27T08:51:20.389Z,19.42
2017-04-27T08:52:20.340Z,18.93
2017-04-27T08:53:20.037Z,18.35
2017-04-27T08:54:20.403Z,18.75
2017-04-27T08:55:20.456Z,19.04
2017-04-27T08:56:20.358Z,19.59
2017-04-27T08:57:20.410Z,20.08
2017-04-27T08:58:20.365Z,18.35
2017-04-27T08:59:20.073Z,18.35
2017-04-27T09:00:20.370Z,18.73
2017-04-27T09:01:20.376Z,18.73
2017-04-27T09:02:20.429Z,18.55
2017-04-27T09:03:20.378Z,18.74
2017-04-27T09:04:20.122Z,18.55
2017-04-27T09:05:20.124Z,18.18
2017-04-27T09:06:20.078Z,17.68
2017-04-27T09:07:20.396Z,17.69
2017-04-27T09:08:20.137Z,17.97
2017-04-27T09:09:20.403Z,17.3
2017-04-27T09:10:20.407Z,16.92
2017-04-27T09:11:20.415Z,16.44
2017-04-27T09:12:20.412Z,17.01
2017-04-27T09:13:20.470Z,18.36
2017-04-27T09:14:20.419Z,18.26
2017-04-27T09:15:20.472Z,18.06
2017-04-27T09:16:20.478Z,18.17
2017-04-27T09:17:20.431Z,17.19
2017-04-27T09:18:20.439Z,17.1
2017-04-27T09:19:20.442Z,17.97
2017-04-27T09:20:20.443Z,18.06
2017-04-27T09:21:20.445Z,18.06
2017-04-27T09:22:20.449Z,18.63
2017-04-27T09:23:20.452Z,17.68
2017-04-27T09:24:20.458Z,17.2
2017-04-27T09:25:20.457Z,17.78
2017-04-27T09:26:20.561Z,17.59
2017-04-27T09:27:20.232Z,16.53
2017-04-27T09:28:20.469Z,16.92
2017-04-27T09:29:20.478Z,17.2
2017-04-27T09:30:20.486Z,17.2
2017-04-27T09:31:20.481Z,16.62
2017-04-27T09:32:20.491Z,17.01
2017-04-27T09:33:20.178Z,17.1
2017-04-27T09:34:20.500Z,17.09
2017-04-27T09:35:20.496Z,16.62
2017-04-27T09:36:20.551Z,16.81
2017-04-27T09:37:20.500Z,17.1
2017-04-27T09:38:20.557Z,16.61
2017-04-27T09:39:20.196Z,17.56
2017-04-27T09:40:20.557Z,18.05
2017-04-27T09:41:20.516Z,17.19
2017-04-27T09:42:20.567Z,16.72
2017-04-27T09:43:20.524Z,16.72
2017-04-27T09:44:20.526Z,16.33
2017-04-27T09:45:20.530Z,16.52
2017-04-27T09:46:20.531Z,16.91
2017-04-27T09:47:20.585Z,15.75
2017-04-27T09:48:20.233Z,15.36
2017-04-27T09:49:20.542Z,15.94
2017-04-27T09:50:20.616Z,16.71
2017-04-27T09:51:20.550Z,16.24
2017-04-27T09:52:20.554Z,16.53
2017-04-27T09:53:20.606Z,16.05
2017-04-27T09:54:20.564Z,15.48
2017-04-27T09:55:20.623Z,15.37
2017-04-27T09:56:20.572Z,15.66
2017-04-27T09:57:20.574Z,15.66
2017-04-27T09:58:20.579Z,15.86
2017-04-27T09:59:20.581Z,15.85
2017-04-27T10:00:20.581Z,16.43
2017-04-27T10:01:20.589Z,16.52
2017-04-27T10:02:20.638Z,16.43
2017-04-27T10:03:20.642Z,16.05
2017-04-27T10:04:20.600Z,16.05
2017-04-27T10:05:20.701Z,15.86
2017-04-27T10:06:20.603Z,16.82
2017-04-27T10:07:20.607Z,17.29
2017-04-27T10:08:20.298Z,18.05
2017-04-27T10:09:20.617Z,17.76
2017-04-27T10:10:20.615Z,18.16
2017-04-27T10:11:20.672Z,17.87
2017-04-27T10:12:20.623Z,17.1
2017-04-27T10:13:20.625Z,16.91
2017-04-27T10:14:20.694Z,16.72
2017-04-27T10:15:20.632Z,16.92
2017-04-27T10:16:20.329Z,15.76
2017-04-27T10:17:20.642Z,16.82
2017-04-27T10:18:20.694Z,16.62
2017-04-27T10:19:20.342Z,16.82
2017-04-27T10:20:20.654Z,16.72
2017-04-27T10:21:20.659Z,16.52
2017-04-27T10:22:20.664Z,16.52
2017-04-27T10:23:20.667Z,16.71
2017-04-27T10:24:20.736Z,16.41
2017-04-27T10:25:20.409Z,18.22
2017-04-27T10:26:20.671Z,18.78
2017-04-27T10:27:20.672Z,18.77
2017-04-27T10:28:20.675Z,17.82
2017-04-27T10:29:21.726Z,18.76
2017-04-27T10:30:20.724Z,18.38
2017-04-27T10:31:20.724Z,18.29
2017-04-27T10:32:20.719Z,17.61
2017-04-27T10:33:20.355Z,17.61
2017-04-27T10:34:20.672Z,17.33
2017-04-27T10:35:20.716Z,16.96
2017-04-27T10:36:20.663Z,16.75
2017-04-27T10:37:20.356Z,16.67
2017-04-27T10:38:20.739Z,15.71
2017-04-27T10:39:20.721Z,15.63
2017-04-27T10:40:20.663Z,15.14
2017-04-27T10:41:20.663Z,15.73
2017-04-27T10:42:20.714Z,16.58
2017-04-27T10:43:20.660Z,17.9
2017-04-27T10:44:20.398Z,18.07
2017-04-27T10:45:20.657Z,18.65
2017-04-27T10:46:20.660Z,18.65
2017-04-27T10:47:20.705Z,17.98
2017-04-27T10:48:20.700Z,16.05
2017-04-27T10:49:20.698Z,16.16
2017-04-27T10:50:20.949Z,16.93
2017-04-27T10:51:20.701Z,17.41
2017-04-27T10:52:20.696Z,16.55
2017-04-27T10:53:20.696Z,15.7
2017-04-27T10:54:20.648Z,15.9
2017-04-27T10:55:20.693Z,16.65
2017-04-27T10:56:20.642Z,16.47
2017-04-27T10:57:20.639Z,15.61
2017-04-27T10:58:20.638Z,16.1
2017-04-27T10:59:20.641Z,16.37
2017-04-27T11:00:20.688Z,16.45
2017-04-27T11:01:20.639Z,16.93
2017-04-27T11:02:20.642Z,16.16
2017-04-27T11:03:20.634Z,15.78
2017-04-27T11:04:20.638Z,15.6
2017-04-27T11:05:20.632Z,14.64
2017-04-27T11:06:20.633Z,15.4
2017-04-27T11:07:20.369Z,15.39
2017-04-27T11:08:20.643Z,15.12
2017-04-27T11:09:20.629Z,15.3
2017-04-27T11:10:20.628Z,15.69
2017-04-27T11:11:20.621Z,15.77
2017-04-27T11:12:20.682Z,16.54
2017-04-27T11:13:20.673Z,15.49
2017-04-27T11:14:20.627Z,15.4
2017-04-27T11:15:20.620Z,14.73
2017-04-27T11:16:20.620Z,14.07
2017-04-27T11:17:20.616Z,15.34
2017-04-27T11:18:20.305Z,16.27
2017-04-27T11:19:20.623Z,16.85
2017-04-27T11:20:20.353Z,15.6
2017-04-27T11:21:20.305Z,16
2017-04-27T11:22:20.611Z,16.65
2017-04-27T11:23:20.612Z,15.7
2017-04-27T11:24:20.618Z,15.33
2017-04-27T11:25:20.611Z,14.76
2017-04-27T11:26:20.661Z,14.67
2017-04-27T11:27:20.613Z,14.67
2017-04-27T11:28:20.664Z,14.68
2017-04-27T11:29:20.614Z,14.59
2017-04-27T11:30:20.668Z,14.49
2017-04-27T11:31:20.622Z,14.78
2017-04-27T11:32:20.673Z,14.69
2017-04-27T11:33:20.680Z,14.69
2017-04-27T11:34:20.686Z,14.88
2017-04-27T11:35:20.738Z,14.69
2017-04-27T11:36:20.642Z,15.27
2017-04-27T11:37:20.653Z,15.46
2017-04-27T11:38:20.393Z,15.36
2017-04-27T11:39:20.655Z,15.94
2017-04-27T11:40:20.757Z,15.75
2017-04-27T11:41:20.353Z,15.75
2017-04-27T11:42:20.670Z,15.76
2017-04-27T11:43:20.676Z,16.33
2017-04-27T11:44:20.731Z,15.94
2017-04-27T11:45:20.685Z,16.04
2017-04-27T11:46:20.743Z,16.24
2017-04-27T11:47:20.750Z,16.14
2017-04-27T11:48:20.700Z,15.75
2017-04-27T11:49:20.708Z,16.24
2017-04-27T11:50:20.405Z,16.14
2017-04-27T11:51:20.457Z,16.44
2017-04-27T11:52:20.412Z,16.72
2017-04-27T11:53:20.732Z,16.72
2017-04-27T11:54:20.425Z,16.72
2017-04-27T11:55:20.429Z,16.63
2017-04-27T11:56:20.747Z,16.72
2017-04-27T11:57:20.444Z,16.72
2017-04-27T11:58:20.811Z,16.63
2017-04-27T11:59:20.458Z,16.63
2017-04-27T12:00:20.782Z,16.63
2017-04-27T12:01:20.825Z,17.02
2017-04-27T12:02:20.780Z,17.12
2017-04-27T12:03:20.785Z,17.12
2017-04-27T12:04:20.839Z,17.02
2017-04-27T12:05:20.798Z,17.22
2017-04-27T12:06:20.852Z,17.12
2017-04-27T12:07:20.808Z,17.12
2017-04-27T12:08:20.815Z,17.6
2017-04-27T12:09:20.872Z,17.7
2017-04-27T12:10:20.829Z,17.7
2017-04-27T12:11:20.835Z,17.6
2017-04-27T12:12:20.526Z,17.6
2017-04-27T12:13:20.844Z,17.41
2017-04-27T12:14:20.849Z,17.99
2017-04-27T12:15:20.594Z,17.7
2017-04-27T12:16:20.868Z,17.42
2017-04-27T12:17:20.918Z,17.03
2017-04-27T12:18:20.884Z,17.52
2017-04-27T12:19:20.892Z,17.6
2017-04-27T12:20:21.936Z,17.99
2017-04-27T12:21:20.583Z,17.6
2017-04-27T12:22:20.897Z,17.99
2017-04-27T12:23:20.927Z,17.8
2017-04-27T12:24:20.911Z,17.99
2017-04-27T12:25:20.920Z,17.7
2017-04-27T12:26:20.662Z,17.9
2017-04-27T12:27:20.931Z,18.1
2017-04-27T12:28:20.989Z,17.81
2017-04-27T12:29:20.944Z,17.9
2017-04-27T12:30:21.000Z,18.19
2017-04-27T12:31:20.957Z,18.19
2017-04-27T12:32:20.660Z,18.09
2017-04-27T12:33:20.967Z,18.09
2017-04-27T12:34:20.664Z,17.9
2017-04-27T12:35:20.975Z,17.6
2017-04-27T12:36:20.982Z,17.8
2017-04-27T12:37:20.992Z,17.99
2017-04-27T12:38:20.688Z,17.99
2017-04-27T12:39:21.053Z,17.99
2017-04-27T12:40:21.008Z,18.28
2017-04-27T12:41:20.706Z,17.8
2017-04-27T12:42:21.021Z,18.09
2017-04-27T12:43:20.717Z,17.8
2017-04-27T12:44:21.035Z,18.09
2017-04-27T12:45:21.037Z,18.09
2017-04-27T12:46:21.044Z,18.19
2017-04-27T12:47:21.054Z,18.19
2017-04-27T12:48:21.108Z,18.09
2017-04-27T12:49:21.116Z,18.19
2017-04-27T12:50:21.067Z,17.9
2017-04-27T12:51:21.076Z,17.99
2017-04-27T12:52:21.079Z,18.28
2017-04-27T12:53:21.137Z,17.89
2017-04-27T12:54:21.145Z,18.27
2017-04-27T12:55:21.150Z,17.98